Wetterdaten: Woche 21.03.16 - 27.03.16 (KW12)
Datum Zeit Temp. Aussen Temp. o. S. +5cm Feuchte Auss BlattFeu 1 Luftdruck Regen Sonnenschein Regendauer Solar Windben Empfang
21.03.2016 00:00 6,5 C 6,1 C 4,9 C 95 % 15 lf 1019,1 hPa 0,0 l/m 0,00 h 0,00 h 0 W/m 14,5 km/h (3 Bft) 96,31 %
21.03.2016 01:00 6,0 C 5,7 C 4,4 C 95 % 15 lf 1019,0 hPa 0,0 l/m 0,00 h 0,00 h 0 W/m 10,6 km/h (2 Bft) 96,24 %
21.03.2016 02:00 5,7 C 5,6 C 4,3 C 95 % 15 lf 1018,9 hPa 0,0 l/m 0,00 h 0,00 h 0 W/m 10,5 km/h (2 Bft) 97,12 %
21.03.2016 03:00 5,6 C 5,6 C 3,9 C 95 % 15 lf 1018,7 hPa 0,0 l/m 0,00 h 0,00 h 0 W/m 10,9 km/h (2 Bft) 93,60 %
21.03.2016 04:00 5,4 C 5,4 C 3,9 C 96 % 15 lf 1018,5 hPa 0,0 l/m 0,00 h 0,03 h 0 W/m 9,8 km/h (2 Bft) 96,35 %
21.03.2016 05:00 5,4 C 5,2 C 3,9 C 96 % 15 lf 1018,5 hPa 0,0 l/m 0,00 h 0,00 h 0 W/m 10,5 km/h (2 Bft) 97,83 %
21.03.2016 06:00 5,4 C 5,5 C 4,1 C 96 % 15 lf 1018,9 hPa 0,0 l/m 0,00 h 0,00 h 7 W/m 8,9 km/h (2 Bft) 96,17 %
21.03.2016 07:00 5,6 C 6,1 C 4,6 C 96 % 15 lf 1019,1 hPa 0,0 l/m 0,00 h 0,00 h 40 W/m 7,3 km/h (2 Bft) 94,00 %
21.03.2016 08:00 6,2 C 7,1 C 5,5 C 97 % 1 lf 1019,3 hPa 0,0 l/m 0,00 h 0,00 h 93 W/m 13,5 km/h (3 Bft) 97,31 %
21.03.2016 09:00 6,9 C 9,0 C 6,5 C 96 % 0 lf 1019,5 hPa 0,0 l/m 0,10 h 0,00 h 195 W/m 15,5 km/h (3 Bft) 94,99 %
21.03.2016 10:00 7,5 C 10,1 C 6,6 C 90 % 13 lf 1019,9 hPa 0,2 l/m 0,53 h 0,27 h 248 W/m 16,3 km/h (3 Bft) 96,03 %
21.03.2016 11:00 8,1 C 9,7 C 6,9 C 83 % 2 lf 1019,9 hPa 0,0 l/m 0,07 h 0,03 h 161 W/m 20,8 km/h (4 Bft) 96,67 %
21.03.2016 12:00 8,6 C 11,6 C 8,9 C 76 % 0 lf 1019,7 hPa 0,0 l/m 0,23 h 0,00 h 279 W/m 18,1 km/h (3 Bft) 93,79 %
21.03.2016 13:00 9,6 C 13,8 C 10,2 C 71 % 0 lf 1019,2 hPa 0,0 l/m 0,80 h 0,00 h 371 W/m 13,8 km/h (3 Bft) 98,21 %
21.03.2016 14:00 10,3 C 12,2 C 10,0 C 67 % 0 lf 1018,6 hPa 0,0 l/m 0,07 h 0,00 h 189 W/m 14,4 km/h (3 Bft) 96,66 %
21.03.2016 15:00 10,0 C 10,7 C 9,0 C 70 % 0 lf 1018,2 hPa 0,0 l/m 0,00 h 0,00 h 105 W/m 17,0 km/h (3 Bft) 93,71 %
21.03.2016 16:00 9,4 C 9,6 C 8,1 C 73 % 0 lf 1017,8 hPa 0,0 l/m 0,00 h 0,00 h 58 W/m 13,7 km/h (3 Bft) 97,20 %
21.03.2016 17:00 8,7 C 8,8 C 7,3 C 75 % 0 lf 1017,4 hPa 0,0 l/m 0,00 h 0,00 h 26 W/m 13,6 km/h (3 Bft) 98,23 %
21.03.2016 18:00 8,3 C 8,2 C 6,8 C 79 % 0 lf 1017,3 hPa 0,0 l/m 0,00 h 0,00 h 9 W/m 14,2 km/h (3 Bft) 92,01 %
21.03.2016 19:00 7,9 C 7,8 C 6,4 C 81 % 0 lf 1017,3 hPa 0,0 l/m 0,00 h 0,00 h 0 W/m 12,3 km/h (3 Bft) 97,60 %
21.03.2016 20:00 7,6 C 7,8 C 6,1 C 82 % 0 lf 1017,2 hPa 0,0 l/m 0,00 h 0,00 h 0 W/m 13,1 km/h (3 Bft) 96,87 %
21.03.2016 21:00 7,5 C 7,0 C 5,6 C 85 % 9 lf 1017,1 hPa 0,0 l/m 0,00 h 0,43 h 0 W/m 15,5 km/h (3 Bft) 95,38 %
21.03.2016 22:00 6,7 C 6,2 C 4,4 C 89 % 15 lf 1017,1 hPa 0,0 l/m 0,00 h 0,00 h 0 W/m 16,7 km/h (3 Bft) 96,09 %
21.03.2016 23:00 6,2 C 6,1 C 4,4 C 89 % 3 lf 1017,0 hPa 0,0 l/m 0,00 h 0,00 h 0 W/m 10,4 km/h (2 Bft) 96,28 %
22.03.2016 00:00 5,7 C 5,1 C 3,7 C 90 % 0 lf 1016,8 hPa 0,0 l/m 0,00 h 0,00 h 0 W/m 12,8 km/h (3 Bft) 95,11 %
22.03.2016 01:00 4,8 C 3,9 C 2,7 C 90 % 2 lf 1016,5 hPa 0,0 l/m 0,00 h 0,00 h 0 W/m 7,8 km/h (2 Bft) 97,81 %
22.03.2016 02:00 4,7 C 4,5 C 3,3 C 93 % 1 lf 1016,3 hPa 0,0 l/m 0,00 h 0,00 h 0 W/m 7,5 km/h (2 Bft) 96,37 %
22.03.2016 03:00 4,6 C 4,4 C 3,3 C 94 % 1 lf 1015,9 hPa 0,0 l/m 0,00 h 0,00 h 0 W/m 8,5 km/h (2 Bft) 93,77 %
22.03.2016 04:00 4,3 C 3,8 C 2,8 C 94 % 2 lf 1015,4 hPa 0,0 l/m 0,00 h 0,00 h 0 W/m 6,4 km/h (2 Bft) 97,40 %
22.03.2016 05:00 4,1 C 4,0 C 3,0 C 94 % 2 lf 1015,3 hPa 0,0 l/m 0,00 h 0,00 h 0 W/m 9,9 km/h (2 Bft) 96,69 %
22.03.2016 06:00 4,2 C 4,4 C 3,3 C 95 % 1 lf 1015,2 hPa 0,0 l/m 0,00 h 0,00 h 9 W/m 11,9 km/h (2 Bft) 96,70 %
22.03.2016 07:00 4,5 C 5,2 C 3,8 C 95 % 1 lf 1015,1 hPa 0,0 l/m 0,27 h 0,00 h 60 W/m 12,1 km/h (2 Bft) 94,57 %
22.03.2016 08:00 5,2 C 7,5 C 5,4 C 96 % 0 lf 1014,8 hPa 0,0 l/m 0,37 h 0,00 h 149 W/m 13,3 km/h (3 Bft) 96,36 %
22.03.2016 09:00 7,0 C 11,8 C 8,8 C 91 % 0 lf 1014,6 hPa 0,0 l/m 0,60 h 0,00 h 270 W/m 14,6 km/h (3 Bft) 95,32 %
22.03.2016 10:00 9,2 C 15,2 C 11,2 C 83 % 0 lf 1014,5 hPa 0,0 l/m 0,70 h 0,00 h 333 W/m 15,0 km/h (3 Bft) 96,59 %
22.03.2016 11:00 10,8 C 15,0 C 12,0 C 78 % 0 lf 1014,2 hPa 0,0 l/m 0,50 h 0,00 h 342 W/m 18,3 km/h (3 Bft) 95,38 %
22.03.2016 12:00 10,3 C 11,5 C 9,5 C 77 % 0 lf 1014,1 hPa 0,0 l/m 0,07 h 0,00 h 151 W/m 17,1 km/h (3 Bft) 97,14 %
22.03.2016 13:00 11,2 C 16,5 C 11,4 C 76 % 0 lf 1013,5 hPa 0,0 l/m 0,47 h 0,00 h 301 W/m 14,9 km/h (3 Bft) 95,71 %
22.03.2016 14:00 11,7 C 13,1 C 10,9 C 73 % 1 lf 1012,9 hPa 0,0 l/m 0,13 h 0,07 h 183 W/m 19,2 km/h (3 Bft) 95,47 %
22.03.2016 15:00 11,5 C 12,4 C 10,5 C 74 % 0 lf 1012,6 hPa 0,0 l/m 0,10 h 0,07 h 121 W/m 21,2 km/h (4 Bft) 96,31 %
22.03.2016 16:00 9,9 C 10,3 C 8,8 C 84 % 0 lf 1012,5 hPa 0,0 l/m 0,00 h 0,03 h 80 W/m 10,8 km/h (2 Bft) 96,64 %
22.03.2016 17:00 8,9 C 8,5 C 6,8 C 88 % 15 lf 1012,5 hPa 1,2 l/m 0,00 h 0,27 h 44 W/m 15,5 km/h (3 Bft) 95,29 %
22.03.2016 18:00 8,0 C 8,0 C 6,0 C 91 % 15 lf 1012,5 hPa 0,0 l/m 0,23 h 0,00 h 22 W/m 10,8 km/h (2 Bft) 94,80 %
22.03.2016 19:00 7,7 C 7,6 C 5,9 C 92 % 15 lf 1012,7 hPa 0,0 l/m 0,00 h 0,00 h 0 W/m 15,0 km/h (3 Bft) 96,31 %
22.03.2016 20:00 7,7 C 7,3 C 5,3 C 91 % 5 lf 1012,7 hPa 0,0 l/m 0,00 h 0,00 h 0 W/m 13,6 km/h (3 Bft) 97,41 %
22.03.2016 21:00 7,2 C 7,0 C 5,1 C 90 % 0 lf 1012,7 hPa 0,0 l/m 0,00 h 0,00 h 0 W/m 13,0 km/h (3 Bft) 95,72 %
22.03.2016 22:00 7,1 C 6,8 C 4,9 C 90 % 0 lf 1012,6 hPa 0,0 l/m 0,00 h 0,00 h 0 W/m 15,2 km/h (3 Bft) 94,51 %
22.03.2016 23:00 6,5 C 6,0 C 4,4 C 90 % 0 lf 1012,5 hPa 0,0 l/m 0,00 h 0,00 h 0 W/m 11,7 km/h (2 Bft) 97,29 %
23.03.2016 00:00 6,4 C 6,7 C 4,9 C 92 % 0 lf 1012,4 hPa 0,0 l/m 0,00 h 0,00 h 0 W/m 12,9 km/h (3 Bft) 94,44 %
23.03.2016 01:00 6,4 C 6,6 C 5,0 C 93 % 2 lf 1012,2 hPa 0,0 l/m 0,00 h 0,07 h 0 W/m 7,3 km/h (2 Bft) 98,58 %
23.03.2016 02:00 6,5 C 6,5 C 5,0 C 93 % 15 lf 1012,0 hPa 0,0 l/m 0,00 h 0,00 h 0 W/m 9,3 km/h (2 Bft) 95,90 %
23.03.2016 03:00 6,4 C 6,3 C 5,0 C 94 % 14 lf 1011,9 hPa 0,0 l/m 0,00 h 0,00 h 0 W/m 7,1 km/h (2 Bft) 93,84 %
23.03.2016 04:00 6,4 C 6,1 C 5,0 C 94 % 14 lf 1011,7 hPa 0,0 l/m 0,00 h 0,07 h 0 W/m 8,2 km/h (2 Bft) 97,74 %
23.03.2016 05:00 6,3 C 6,1 C 4,8 C 95 % 15 lf 1011,5 hPa 0,0 l/m 0,00 h 0,00 h 0 W/m 7,6 km/h (2 Bft) 97,52 %
23.03.2016 06:00 6,1 C 5,8 C 4,5 C 95 % 15 lf 1011,7 hPa 0,2 l/m 0,00 h 0,30 h 8 W/m 11,1 km/h (2 Bft) 94,28 %
23.03.2016 07:00 5,9 C 6,2 C 4,7 C 96 % 15 lf 1011,9 hPa 0,2 l/m 0,07 h 0,37 h 54 W/m 13,0 km/h (3 Bft) 95,68 %
23.03.2016 08:00 6,3 C 8,2 C 5,5 C 96 % 15 lf 1012,0 hPa 0,0 l/m 0,40 h 0,20 h 148 W/m 18,7 km/h (3 Bft) 96,73 %
23.03.2016 09:00 7,0 C 9,7 C 6,3 C 96 % 14 lf 1011,9 hPa 0,0 l/m 0,37 h 0,00 h 192 W/m 16,7 km/h (3 Bft) 95,23 %
23.03.2016 10:00 7,2 C 8,5 C 5,9 C 92 % 7 lf 1012,0 hPa 0,2 l/m 0,00 h 0,17 h 130 W/m 19,7 km/h (3 Bft) 97,92 %
23.03.2016 11:00 7,4 C 9,3 C 6,9 C 88 % 7 lf 1012,1 hPa 0,0 l/m 0,00 h 0,03 h 178 W/m 17,0 km/h (3 Bft) 93,95 %
23.03.2016 12:00 7,9 C 9,5 C 7,6 C 85 % 0 lf 1012,4 hPa 0,0 l/m 0,00 h 0,00 h 171 W/m 16,2 km/h (3 Bft) 95,99 %
23.03.2016 13:00 8,3 C 9,8 C 7,8 C 83 % 0 lf 1012,3 hPa 0,0 l/m 0,00 h 0,03 h 146 W/m 15,5 km/h (3 Bft) 97,01 %
23.03.2016 14:00 8,8 C 11,4 C 8,9 C 81 % 0 lf 1012,1 hPa 0,0 l/m 0,33 h 0,00 h 262 W/m 17,9 km/h (3 Bft) 96,66 %
23.03.2016 15:00 9,9 C 14,8 C 9,6 C 74 % 0 lf 1011,7 hPa 0,0 l/m 0,90 h 0,00 h 360 W/m 19,8 km/h (3 Bft) 94,38 %
23.03.2016 16:00 10,8 C 15,5 C 9,9 C 68 % 0 lf 1011,4 hPa 0,0 l/m 0,80 h 0,00 h 289 W/m 16,9 km/h (3 Bft) 97,94 %
23.03.2016 17:00 10,6 C 11,7 C 9,1 C 69 % 0 lf 1011,5 hPa 0,0 l/m 0,87 h 0,00 h 116 W/m 16,0 km/h (3 Bft) 95,05 %
23.03.2016 18:00 9,7 C 9,4 C 7,7 C 72 % 0 lf 1011,9 hPa 0,0 l/m 0,23 h 0,00 h 28 W/m 11,3 km/h (2 Bft) 95,02 %
23.03.2016 19:00 8,6 C 8,1 C 6,7 C 74 % 0 lf 1012,3 hPa 0,0 l/m 0,00 h 0,00 h 0 W/m 13,1 km/h (3 Bft) 97,49 %
23.03.2016 20:00 7,7 C 6,6 C 5,1 C 78 % 0 lf 1012,7 hPa 0,0 l/m 0,00 h 0,00 h 0 W/m 9,4 km/h (2 Bft) 96,08 %
23.03.2016 21:00 6,1 C 4,1 C 2,7 C 81 % 0 lf 1013,0 hPa 0,0 l/m 0,00 h 0,00 h 0 W/m 4,5 km/h (1 Bft) 96,59 %
23.03.2016 22:00 4,6 C 2,9 C 1,8 C 83 % 1 lf 1013,2 hPa 0,0 l/m 0,00 h 0,00 h 0 W/m 3,0 km/h (1 Bft) 95,45 %
23.03.2016 23:00 3,7 C 2,8 C 1,7 C 87 % 2 lf 1013,4 hPa 0,0 l/m 0,00 h 0,00 h 0 W/m 2,0 km/h (1 Bft) 95,51 %
24.03.2016 00:00 3,7 C 4,1 C 3,0 C 91 % 1 lf 1013,6 hPa 0,0 l/m 0,00 h 0,00 h 0 W/m 1,7 km/h (1 Bft) 96,16 %
24.03.2016 01:00 4,2 C 4,5 C 3,0 C 94 % 0 lf 1013,6 hPa 0,0 l/m 0,00 h 0,00 h 0 W/m 3,0 km/h (1 Bft) 96,38 %
24.03.2016 02:00 4,3 C 4,0 C 2,8 C 94 % 1 lf 1013,5 hPa 0,0 l/m 0,00 h 0,00 h 0 W/m 0,8 km/h (0 Bft) 98,08 %
24.03.2016 03:00 4,2 C 4,0 C 2,9 C 94 % 1 lf 1013,2 hPa 0,0 l/m 0,00 h 0,00 h 0 W/m 2,7 km/h (1 Bft) 92,88 %
24.03.2016 04:00 4,3 C 4,8 C 3,6 C 95 % 0 lf 1013,3 hPa 0,0 l/m 0,00 h 0,00 h 0 W/m 2,2 km/h (1 Bft) 97,11 %
24.03.2016 05:00 4,7 C 5,4 C 3,9 C 95 % 0 lf 1013,3 hPa 0,0 l/m 0,00 h 0,00 h 0 W/m 1,9 km/h (1 Bft) 98,06 %
24.03.2016 06:00 5,1 C 5,3 C 4,0 C 95 % 14 lf 1013,3 hPa 0,0 l/m 0,00 h 0,20 h 9 W/m 3,6 km/h (1 Bft) 93,60 %
24.03.2016 07:00 5,6 C 6,1 C 4,8 C 96 % 13 lf 1013,6 hPa 0,0 l/m 0,00 h 0,00 h 28 W/m 7,4 km/h (2 Bft) 97,28 %
24.03.2016 08:00 6,5 C 7,4 C 5,8 C 96 % 1 lf 1013,9 hPa 0,0 l/m 0,00 h 0,00 h 71 W/m 12,1 km/h (2 Bft) 95,41 %
24.03.2016 09:00 7,0 C 7,8 C 6,4 C 96 % 0 lf 1014,3 hPa 0,0 l/m 0,00 h 0,00 h 73 W/m 11,8 km/h (2 Bft) 94,58 %
24.03.2016 10:00 7,3 C 8,7 C 7,1 C 95 % 0 lf 1014,4 hPa 0,0 l/m 0,00 h 0,03 h 123 W/m 12,1 km/h (2 Bft) 97,74 %
24.03.2016 11:00 8,3 C 10,4 C 8,7 C 92 % 0 lf 1014,4 hPa 0,0 l/m 0,00 h 0,00 h 213 W/m 15,5 km/h (3 Bft) 96,52 %
24.03.2016 12:00 9,1 C 10,6 C 8,8 C 83 % 0 lf 1014,3 hPa 0,0 l/m 0,00 h 0,00 h 166 W/m 18,0 km/h (3 Bft) 93,51 %
24.03.2016 13:00 9,1 C 10,0 C 8,4 C 78 % 0 lf 1014,3 hPa 0,0 l/m 0,00 h 0,00 h 117 W/m 17,3 km/h (3 Bft) 98,25 %
24.03.2016 14:00 9,1 C 10,0 C 8,4 C 76 % 0 lf 1014,0 hPa 0,0 l/m 0,00 h 0,00 h 128 W/m 18,8 km/h (3 Bft) 97,46 %
24.03.2016 15:00 9,3 C 10,6 C 8,9 C 74 % 0 lf 1013,7 hPa 0,0 l/m 0,00 h 0,00 h 171 W/m 18,2 km/h (3 Bft) 92,90 %
24.03.2016 16:00 9,4 C 10,2 C 8,6 C 73 % 0 lf 1013,5 hPa 0,0 l/m 0,00 h 0,00 h 95 W/m 17,1 km/h (3 Bft) 97,44 %
24.03.2016 17:00 9,3 C 9,7 C 8,0 C 71 % 0 lf 1013,3 hPa 0,0 l/m 0,00 h 0,00 h 47 W/m 14,7 km/h (3 Bft) 97,16 %
24.03.2016 18:00 8,9 C 9,0 C 7,3 C 71 % 0 lf 1013,3 hPa 0,0 l/m 0,00 h 0,00 h 12 W/m 10,5 km/h (2 Bft) 94,61 %
24.03.2016 19:00 8,5 C 8,3 C 6,7 C 74 % 0 lf 1013,3 hPa 0,0 l/m 0,00 h 0,00 h 0 W/m 9,9 km/h (2 Bft) 95,73 %
24.03.2016 20:00 8,3 C 8,3 C 6,7 C 75 % 0 lf 1013,2 hPa 0,0 l/m 0,00 h 0,07 h 0 W/m 11,9 km/h (2 Bft) 96,40 %
24.03.2016 21:00 8,0 C 7,6 C 5,5 C 79 % 10 lf 1013,2 hPa 0,0 l/m 0,00 h 0,57 h 0 W/m 11,5 km/h (2 Bft) 95,25 %
24.03.2016 22:00 7,6 C 7,5 C 5,7 C 83 % 2 lf 1012,9 hPa 0,0 l/m 0,00 h 0,50 h 0 W/m 13,0 km/h (3 Bft) 98,79 %
24.03.2016 23:00 7,6 C 7,6 C 6,0 C 86 % 5 lf 1012,7 hPa 0,2 l/m 0,00 h 0,03 h 0 W/m 16,0 km/h (3 Bft) 92,90 %
25.03.2016 00:00 7,5 C 7,3 C 6,1 C 87 % 0 lf 1012,6 hPa 0,0 l/m 0,00 h 0,00 h 0 W/m 13,4 km/h (3 Bft) 96,84 %
25.03.2016 01:00 7,4 C 7,3 C 6,1 C 87 % 0 lf 1012,3 hPa 0,0 l/m 0,00 h 0,00 h 0 W/m 15,3 km/h (3 Bft) 97,29 %
25.03.2016 02:00 7,3 C 7,2 C 6,1 C 87 % 0 lf 1012,0 hPa 0,0 l/m 0,00 h 0,00 h 0 W/m 17,3 km/h (3 Bft) 96,37 %
25.03.2016 03:00 7,2 C 7,1 C 5,8 C 87 % 3 lf 1011,6 hPa 0,0 l/m 0,00 h 0,13 h 0 W/m 20,8 km/h (4 Bft) 94,38 %
25.03.2016 04:00 6,7 C 6,2 C 5,0 C 91 % 15 lf 1011,2 hPa 0,0 l/m 0,00 h 0,93 h 0 W/m 17,4 km/h (3 Bft) 96,65 %
25.03.2016 05:00 6,4 C 6,1 C 4,4 C 93 % 15 lf 1010,8 hPa 0,4 l/m 0,00 h 0,93 h 0 W/m 17,8 km/h (3 Bft) 96,29 %
25.03.2016 06:00 6,3 C 6,1 C 4,5 C 94 % 15 lf 1010,6 hPa 0,4 l/m 0,00 h 1,00 h 10 W/m 18,3 km/h (3 Bft) 96,29 %
25.03.2016 07:00 6,3 C 6,1 C 5,0 C 95 % 15 lf 1010,2 hPa 0,4 l/m 0,00 h 1,00 h 38 W/m 18,9 km/h (3 Bft) 95,65 %
25.03.2016 08:00 6,4 C 6,2 C 5,1 C 96 % 15 lf 1010,1 hPa 0,4 l/m 0,00 h 0,95 h 58 W/m 19,9 km/h (4 Bft) 95,55 %
25.03.2016 09:00 6,6 C 6,5 C 5,4 C 96 % 15 lf 1010,1 hPa 1,0 l/m 0,00 h 1,00 h 77 W/m 22,1 km/h (4 Bft) 97,01 %
25.03.2016 10:00 6,8 C 6,7 C 5,6 C 96 % 15 lf 1010,2 hPa 1,0 l/m 0,00 h 1,00 h 89 W/m 20,4 km/h (4 Bft) 95,66 %
25.03.2016 11:00 7,0 C 7,0 C 5,9 C 96 % 15 lf 1010,1 hPa 0,8 l/m 0,00 h 1,00 h 109 W/m 21,0 km/h (4 Bft) 96,85 %
25.03.2016 12:00 7,3 C 7,3 C 6,2 C 96 % 15 lf 1010,0 hPa 0,6 l/m 0,00 h 1,00 h 82 W/m 16,8 km/h (3 Bft) 93,41 %
25.03.2016 13:00 7,8 C 7,9 C 6,7 C 97 % 15 lf 1010,1 hPa 0,2 l/m 0,00 h 0,80 h 66 W/m 16,7 km/h (3 Bft) 97,30 %
25.03.2016 14:00 8,1 C 8,0 C 6,8 C 97 % 15 lf 1010,7 hPa 0,0 l/m 0,00 h 0,33 h 69 W/m 23,3 km/h (4 Bft) 96,44 %
25.03.2016 15:00 8,8 C 10,5 C 7,9 C 96 % 3 lf 1011,4 hPa 0,0 l/m 0,53 h 0,03 h 240 W/m 20,7 km/h (4 Bft) 94,45 %
25.03.2016 16:00 9,1 C 8,8 C 6,9 C 89 % 0 lf 1011,9 hPa 0,0 l/m 0,00 h 0,00 h 97 W/m 23,6 km/h (4 Bft) 96,01 %
25.03.2016 17:00 8,6 C 8,7 C 6,5 C 88 % 0 lf 1012,8 hPa 0,0 l/m 0,00 h 0,00 h 54 W/m 23,6 km/h (4 Bft) 97,02 %
25.03.2016 18:00 8,0 C 8,0 C 6,1 C 91 % 0 lf 1013,7 hPa 0,0 l/m 0,00 h 0,00 h 16 W/m 18,3 km/h (3 Bft) 95,37 %
25.03.2016 19:00 7,7 C 7,8 C 6,3 C 92 % 0 lf 1014,9 hPa 0,0 l/m 0,00 h 0,00 h 0 W/m 17,2 km/h (3 Bft) 96,80 %
25.03.2016 20:00 7,6 C 7,6 C 6,3 C 93 % 1 lf 1016,0 hPa 0,0 l/m 0,00 h 0,00 h 0 W/m 15,7 km/h (3 Bft) 95,73 %
25.03.2016 21:00 7,3 C 7,2 C 6,1 C 94 % 1 lf 1016,6 hPa 0,0 l/m 0,00 h 0,00 h 0 W/m 9,6 km/h (2 Bft) 94,17 %
25.03.2016 22:00 7,2 C 7,2 C 6,1 C 94 % 1 lf 1017,2 hPa 0,0 l/m 0,00 h 0,00 h 0 W/m 8,3 km/h (2 Bft) 98,44 %
25.03.2016 23:00 7,1 C 7,2 C 6,0 C 94 % 0 lf 1017,6 hPa 0,0 l/m 0,00 h 0,00 h 0 W/m 10,1 km/h (2 Bft) 95,80 %
26.03.2016 00:00 6,8 C 6,6 C 5,3 C 93 % 0 lf 1018,0 hPa 0,0 l/m 0,00 h 0,00 h 0 W/m 7,0 km/h (2 Bft) 93,42 %
26.03.2016 01:00 5,9 C 4,1 C 2,8 C 91 % 6 lf 1018,2 hPa 0,0 l/m 0,00 h 0,00 h 0 W/m 2,4 km/h (1 Bft) 97,72 %
26.03.2016 02:00 4,5 C 3,2 C 1,8 C 91 % 14 lf 1018,2 hPa 0,0 l/m 0,00 h 0,00 h 0 W/m 4,6 km/h (1 Bft) 95,37 %
26.03.2016 03:00 3,4 C 2,2 C 1,0 C 92 % 15 lf 1018,2 hPa 0,0 l/m 0,00 h 0,00 h 0 W/m 4,7 km/h (1 Bft) 96,77 %
26.03.2016 04:00 2,5 C 1,7 C 0,5 C 93 % 15 lf 1017,9 hPa 0,0 l/m 0,00 h 0,00 h 0 W/m 3,2 km/h (1 Bft) 95,73 %
26.03.2016 05:00 2,4 C 2,2 C 0,7 C 95 % 15 lf 1017,4 hPa 0,0 l/m 0,00 h 0,00 h 0 W/m 6,1 km/h (2 Bft) 95,59 %
26.03.2016 06:00 2,6 C 2,4 C 1,0 C 96 % 15 lf 1017,2 hPa 0,0 l/m 0,10 h 0,00 h 18 W/m 6,2 km/h (2 Bft) 95,61 %
26.03.2016 07:00 3,0 C 3,5 C 1,9 C 96 % 15 lf 1017,2 hPa 0,0 l/m 0,70 h 0,00 h 109 W/m 8,3 km/h (2 Bft) 96,94 %
26.03.2016 08:00 5,2 C 9,4 C 6,6 C 98 % 15 lf 1017,0 hPa 0,0 l/m 1,00 h 0,00 h 285 W/m 12,8 km/h (3 Bft) 95,53 %
26.03.2016 09:00 8,4 C 13,7 C 13,3 C 92 % 2 lf 1016,9 hPa 0,0 l/m 1,00 h 0,00 h 455 W/m 21,8 km/h (4 Bft) 96,08 %
26.03.2016 10:00 10,9 C 15,4 C 15,2 C 76 % 0 lf 1016,4 hPa 0,0 l/m 1,00 h 0,00 h 593 W/m 27,6 km/h (4 Bft) 96,01 %
26.03.2016 11:00 12,8 C 17,2 C 16,8 C 70 % 0 lf 1015,5 hPa 0,0 l/m 1,00 h 0,00 h 651 W/m 28,1 km/h (4 Bft) 95,73 %
26.03.2016 12:00 14,8 C 20,4 C 14,6 C 62 % 0 lf 1014,9 hPa 0,0 l/m 1,00 h 0,00 h 695 W/m 27,0 km/h (4 Bft) 96,73 %
26.03.2016 13:00 15,7 C 19,9 C 14,5 C 60 % 0 lf 1014,1 hPa 0,0 l/m 1,00 h 0,00 h 664 W/m 26,4 km/h (4 Bft) 96,87 %
26.03.2016 14:00 16,2 C 19,9 C 14,7 C 59 % 0 lf 1012,7 hPa 0,0 l/m 1,00 h 0,00 h 598 W/m 31,5 km/h (5 Bft) 93,74 %
26.03.2016 15:00 15,7 C 18,5 C 14,3 C 60 % 0 lf 1011,6 hPa 0,0 l/m 1,00 h 0,00 h 481 W/m 35,9 km/h (5 Bft) 97,79 %
26.03.2016 16:00 15,5 C 17,5 C 13,9 C 62 % 0 lf 1010,6 hPa 0,0 l/m 1,00 h 0,00 h 303 W/m 35,0 km/h (5 Bft) 97,37 %
26.03.2016 17:00 14,8 C 15,1 C 12,9 C 65 % 0 lf 1010,3 hPa 0,0 l/m 0,80 h 0,00 h 124 W/m 35,8 km/h (5 Bft) 93,38 %
26.03.2016 18:00 13,2 C 13,1 C 11,4 C 70 % 0 lf 1010,3 hPa 0,0 l/m 0,52 h 0,00 h 35 W/m 31,4 km/h (5 Bft) 97,25 %
26.03.2016 19:00 12,1 C 12,2 C 10,4 C 73 % 0 lf 1009,7 hPa 0,0 l/m 0,00 h 0,00 h 5 W/m 31,2 km/h (5 Bft) 97,65 %
26.03.2016 20:00 11,8 C 11,8 C 10,0 C 72 % 0 lf 1008,7 hPa 0,0 l/m 0,00 h 0,00 h 0 W/m 33,6 km/h (5 Bft) 93,53 %
26.03.2016 21:00 11,6 C 11,6 C 9,8 C 73 % 0 lf 1008,2 hPa 0,0 l/m 0,00 h 0,00 h 0 W/m 28,7 km/h (4 Bft) 97,01 %
26.03.2016 22:00 11,2 C 11,2 C 9,3 C 75 % 0 lf 1007,3 hPa 0,0 l/m 0,00 h 0,00 h 0 W/m 25,3 km/h (4 Bft) 97,02 %
26.03.2016 23:00 10,4 C 10,3 C 8,7 C 77 % 0 lf 1006,2 hPa 0,0 l/m 0,00 h 0,00 h 0 W/m 25,6 km/h (4 Bft) 95,02 %
27.03.2016 00:00 10,1 C 10,3 C 8,6 C 78 % 0 lf 1005,3 hPa 0,0 l/m 0,00 h 0,00 h 0 W/m 25,8 km/h (4 Bft) 96,89 %
27.03.2016 01:00 10,4 C 10,5 C 8,8 C 78 % 0 lf 1004,7 hPa 0,0 l/m 0,00 h 0,00 h 0 W/m 20,1 km/h (4 Bft) 94,87 %
27.03.2016 03:00 10,2 C 10,6 C 8,8 C 79 % 0 lf 1003,3 hPa 0,0 l/m 0,00 h 0,00 h 0 W/m 29,0 km/h (5 Bft) 95,93 %
27.03.2016 04:00 10,3 C 10,5 C 8,9 C 78 % 0 lf 1002,2 hPa 0,0 l/m 0,00 h 0,00 h 0 W/m 25,9 km/h (4 Bft) 98,15 %
27.03.2016 05:00 10,3 C 10,5 C 8,7 C 79 % 2 lf 1002,6 hPa 0,0 l/m 0,00 h 0,13 h 0 W/m 11,7 km/h (2 Bft) 94,52 %
27.03.2016 06:00 10,3 C 9,8 C 8,0 C 83 % 3 lf 1003,3 hPa 0,0 l/m 0,00 h 0,20 h 0 W/m 13,5 km/h (3 Bft) 94,67 %
27.03.2016 07:00 9,1 C 8,2 C 7,0 C 89 % 13 lf 1004,7 hPa 1,2 l/m 0,00 h 0,93 h 7 W/m 21,0 km/h (4 Bft) 98,72 %
27.03.2016 08:00 8,0 C 7,3 C 6,2 C 93 % 15 lf 1005,9 hPa 0,4 l/m 0,00 h 1,00 h 18 W/m 21,2 km/h (4 Bft) 94,54 %
27.03.2016 09:00 7,5 C 6,9 C 5,8 C 94 % 15 lf 1007,1 hPa 1,0 l/m 0,00 h 0,77 h 44 W/m 29,2 km/h (5 Bft) 95,94 %
27.03.2016 10:00 7,5 C 8,4 C 6,6 C 93 % 11 lf 1008,1 hPa 0,0 l/m 0,13 h 0,00 h 178 W/m 21,2 km/h (4 Bft) 96,35 %
27.03.2016 11:00 9,1 C 11,2 C 7,7 C 86 % 0 lf 1008,6 hPa 0,0 l/m 0,67 h 0,00 h 303 W/m 30,4 km/h (5 Bft) 94,96 %
27.03.2016 12:00 10,4 C 14,2 C 10,4 C 78 % 0 lf 1008,7 hPa 0,0 l/m 0,77 h 0,00 h 409 W/m 32,4 km/h (5 Bft) 97,18 %
27.03.2016 13:00 12,0 C 16,1 C 11,9 C 69 % 0 lf 1008,7 hPa 0,0 l/m 0,73 h 0,00 h 571 W/m 36,8 km/h (5 Bft) 96,40 %
27.03.2016 14:00 12,5 C 15,8 C 12,0 C 64 % 0 lf 1008,4 hPa 0,0 l/m 0,57 h 0,00 h 424 W/m 32,1 km/h (5 Bft) 93,81 %
27.03.2016 15:00 12,1 C 15,8 C 9,7 C 71 % 8 lf 1008,3 hPa 0,2 l/m 0,63 h 0,40 h 443 W/m 27,4 km/h (4 Bft) 97,81 %
27.03.2016 16:00 13,5 C 17,7 C 12,1 C 63 % 0 lf 1007,7 hPa 0,0 l/m 0,77 h 0,00 h 443 W/m 32,4 km/h (5 Bft) 95,00 %
27.03.2016 17:00 13,9 C 16,6 C 12,0 C 59 % 0 lf 1007,6 hPa 0,0 l/m 0,67 h 0,00 h 295 W/m 26,6 km/h (4 Bft) 94,13 %
27.03.2016 18:00 13,7 C 14,7 C 11,6 C 58 % 0 lf 1007,3 hPa 0,0 l/m 0,63 h 0,00 h 137 W/m 24,5 km/h (4 Bft) 98,46 %
27.03.2016 19:00 12,7 C 12,4 C 10,4 C 62 % 0 lf 1007,3 hPa 0,0 l/m 0,20 h 0,00 h 33 W/m 28,4 km/h (4 Bft) 94,65 %
27.03.2016 20:00 11,4 C 11,2 C 9,1 C 66 % 0 lf 1007,4 hPa 0,0 l/m 0,00 h 0,00 h 5 W/m 22,6 km/h (4 Bft) 94,89 %
27.03.2016 21:00 10,7 C 10,6 C 8,9 C 70 % 0 lf 1007,6 hPa 0,0 l/m 0,00 h 0,00 h 0 W/m 25,7 km/h (4 Bft) 97,72 %
27.03.2016 22:00 10,4 C 10,4 C 8,4 C 72 % 0 lf 1007,4 hPa 0,0 l/m 0,00 h 0,00 h 0 W/m 20,6 km/h (4 Bft) 97,36 %
27.03.2016 23:00 9,7 C 9,3 C 7,6 C 75 % 0 lf 1007,0 hPa 0,0 l/m 0,00 h 0,00 h 0 W/m 14,9 km/h (3 Bft) 92,73 %
Min-Datum _ 26.03.16 26.03.16 26.03.16 27.03.16 21.03.16 27.03.16 - - - - 23.03.16 25.03.16
_ Min-Zeit 04:40 04:12 04:36 18:08 08:36 05:04 - - - - 21:50 12:22
Minimum _ 2,3 C 1,1 C 0,0 C 56 % 0 lf 1001,5 hPa - - - - 0,0 km/h (0 Bft) 57,45 %
Max-Datum _ 26.03.16 26.03.16 26.03.16 26.03.16 21.03.16 21.03.16 22.03.16 21.03.16 21.03.16 27.03.16 27.03.16 21.03.16
_ Max-Zeit 14:16 13:40 11:14 08:20 00:00 11:36 17:06 09:02 04:16 13:20 15:08 01:00
Maximum _ 16,4 C 22,8 C 17,8 C 98 % 15 lf 1020,1 hPa 1,2 l/m 0,03 h 0,03 h 896 W/m 60,7 km/h
W-SW (7 Bft)
100,00 %
Durchschnitt _ 8,1 C 8,8 C 6,9 C 85 % 5 lf 1013,0 hPa #10,2 l/m #26:37 h #17:23 h 178 W/m 16,1 km/h (3 Bft) 96,01 %
© 2016 W. Hausmann